createdAt,value
2022-07-29T00:00:59.451Z,5.68
2022-07-29T00:04:01.547Z,5.93
2022-07-29T00:07:04.929Z,6.82
2022-07-29T00:10:06.959Z,6.70
2022-07-29T00:13:08.867Z,6.78
2022-07-29T00:16:10.794Z,6.40
2022-07-29T00:19:12.906Z,5.78
2022-07-29T00:22:14.955Z,5.93
2022-07-29T00:25:16.854Z,6.68
2022-07-29T00:28:18.776Z,6.13
2022-07-29T00:31:20.767Z,5.80
2022-07-29T00:34:22.790Z,6.05
2022-07-29T00:37:25.140Z,6.43
2022-07-29T00:40:27.264Z,6.43
2022-07-29T00:43:29.216Z,6.22
2022-07-29T00:46:31.218Z,6.55
2022-07-29T00:49:34.100Z,6.30
2022-07-29T00:52:39.348Z,6.03
2022-07-29T00:55:41.373Z,5.93
2022-07-29T00:58:43.843Z,6.00
2022-07-29T01:04:47.793Z,5.82
2022-07-29T01:07:52.190Z,6.25
2022-07-29T01:10:55.050Z,6.35
2022-07-29T01:13:58.320Z,6.57
2022-07-29T01:17:04.968Z,6.53
2022-07-29T01:20:16.061Z,6.43
2022-07-29T01:23:47.493Z,5.97
2022-07-29T01:26:58.384Z,7.03
2022-07-29T01:30:05.426Z,6.53
2022-07-29T01:33:14.650Z,6.18
2022-07-29T01:36:44.047Z,6.13
2022-07-29T01:39:49.950Z,6.50
2022-07-29T01:42:55.601Z,6.18
2022-07-29T01:46:05.522Z,5.55
2022-07-29T01:49:12.073Z,6.63
2022-07-29T01:52:20.940Z,6.35
2022-07-29T01:55:29.615Z,6.50
2022-07-29T01:58:33.714Z,5.40
2022-07-29T02:01:37.013Z,5.93
2022-07-29T02:04:40.977Z,5.72
2022-07-29T02:07:43.956Z,6.65
2022-07-29T02:10:47.342Z,6.32
2022-07-29T02:13:51.015Z,5.75
2022-07-29T02:16:55.107Z,6.70
2022-07-29T02:19:59.940Z,6.90
2022-07-29T02:23:03.223Z,6.47
2022-07-29T02:26:05.774Z,6.38
2022-07-29T02:29:09.645Z,6.65
2022-07-29T02:32:12.031Z,6.72
2022-07-29T02:35:15.810Z,6.50
2022-07-29T02:38:19.209Z,6.50
2022-07-29T02:41:36.244Z,6.07
2022-07-29T02:44:38.593Z,5.82
2022-07-29T02:47:46.550Z,6.30
2022-07-29T02:50:53.096Z,6.15
2022-07-29T02:53:57.656Z,6.18
2022-07-29T02:57:04.902Z,7.07
2022-07-29T03:00:09.431Z,7.00
2022-07-29T03:03:15.554Z,7.75
2022-07-29T03:06:30.886Z,8.63
2022-07-29T03:09:41.822Z,7.47
2022-07-29T03:12:44.370Z,7.28
2022-07-29T03:15:48.778Z,7.60
2022-07-29T03:18:52.292Z,7.85
2022-07-29T03:21:56.653Z,6.72
2022-07-29T03:24:58.661Z,6.78
2022-07-29T03:28:00.921Z,8.15
2022-07-29T03:31:02.840Z,6.75
2022-07-29T03:34:07.682Z,6.25
2022-07-29T03:37:09.582Z,6.80
2022-07-29T03:40:15.684Z,6.85
2022-07-29T03:43:19.327Z,6.75
2022-07-29T03:46:24.951Z,6.43
2022-07-29T03:49:28.526Z,7.30
2022-07-29T03:52:31.332Z,6.75
2022-07-29T03:55:41.073Z,6.82
2022-07-29T03:58:43.345Z,7.60
2022-07-29T04:01:46.263Z,8.35
2022-07-29T04:04:48.231Z,6.80
2022-07-29T04:07:50.175Z,7.85
2022-07-29T04:10:52.155Z,7.10
2022-07-29T04:13:54.084Z,6.85
2022-07-29T04:16:55.962Z,7.07
2022-07-29T04:19:57.882Z,7.10
2022-07-29T04:22:59.811Z,7.03
2022-07-29T04:26:01.737Z,7.00
2022-07-29T04:29:03.685Z,7.00
2022-07-29T04:32:06.076Z,7.32
2022-07-29T04:38:15.804Z,7.43
2022-07-29T04:41:19.074Z,8.02
2022-07-29T04:44:28.497Z,7.70
2022-07-29T04:47:30.996Z,8.15
2022-07-29T04:50:32.960Z,8.07
2022-07-29T04:53:34.836Z,7.35
2022-07-29T04:56:36.744Z,7.32
2022-07-29T04:59:38.649Z,6.18
2022-07-29T05:02:40.602Z,5.43
2022-07-29T05:05:42.564Z,4.50
2022-07-29T05:08:44.464Z,4.55
2022-07-29T05:11:46.468Z,3.95
2022-07-29T05:14:48.365Z,4.50
2022-07-29T05:17:50.272Z,3.55
2022-07-29T05:20:52.258Z,4.10
2022-07-29T05:23:54.126Z,4.43
2022-07-29T05:26:56.059Z,4.25
2022-07-29T05:29:57.968Z,4.35
2022-07-29T05:32:59.888Z,3.55
2022-07-29T05:36:01.822Z,4.15
2022-07-29T05:39:03.903Z,4.47
2022-07-29T05:45:14.204Z,4.40
2022-07-29T05:48:16.228Z,4.57
2022-07-29T05:51:18.112Z,4.60
2022-07-29T05:54:20.018Z,4.82
2022-07-29T05:57:24.038Z,5.10
2022-07-29T06:00:25.995Z,4.07
2022-07-29T06:03:28.240Z,3.75
2022-07-29T06:06:30.133Z,3.67
2022-07-29T06:09:35.928Z,3.95
2022-07-29T06:12:38.177Z,4.10
2022-07-29T06:15:40.632Z,4.70
2022-07-29T06:18:42.580Z,3.70
2022-07-29T06:21:45.746Z,3.90
2022-07-29T06:24:47.640Z,3.67
2022-07-29T06:27:49.513Z,3.75
2022-07-29T06:30:51.508Z,3.28
2022-07-29T06:36:56.668Z,3.75
2022-07-29T06:43:01.668Z,3.40
2022-07-29T06:46:06.770Z,3.33
2022-07-29T06:49:09.169Z,3.60
2022-07-29T06:52:11.088Z,3.22
2022-07-29T06:55:13.040Z,3.30
2022-07-29T06:58:28.184Z,2.60
2022-07-29T07:01:30.214Z,3.90
2022-07-29T07:04:32.280Z,2.60
2022-07-29T07:07:34.457Z,2.90
2022-07-29T07:10:36.677Z,3.08
2022-07-29T07:13:38.706Z,3.08
2022-07-29T07:16:40.665Z,3.33
2022-07-29T07:19:42.594Z,3.33
2022-07-29T07:22:44.744Z,2.95
2022-07-29T07:25:46.644Z,3.10
2022-07-29T07:28:48.531Z,2.85
2022-07-29T07:31:50.601Z,2.95
2022-07-29T07:34:52.569Z,3.05
2022-07-29T07:37:55.714Z,3.20
2022-07-29T07:40:57.662Z,3.03
2022-07-29T07:43:59.704Z,3.30
2022-07-29T07:47:03.932Z,2.80
2022-07-29T07:50:16.577Z,2.85
2022-07-29T07:53:20.746Z,2.85
2022-07-29T07:56:22.695Z,2.95
2022-07-29T07:59:24.954Z,2.60
2022-07-29T08:02:26.891Z,3.60
2022-07-29T08:05:28.926Z,2.95
2022-07-29T08:08:30.849Z,3.00
2022-07-29T08:11:34.090Z,2.88
2022-07-29T08:14:39.637Z,3.17
2022-07-29T08:17:41.566Z,3.22
2022-07-29T08:20:43.482Z,2.78
2022-07-29T08:23:52.698Z,3.13
2022-07-29T08:26:59.907Z,3.10
2022-07-29T08:30:01.866Z,3.38
2022-07-29T08:33:04.322Z,2.75
2022-07-29T08:36:06.865Z,3.08
2022-07-29T08:39:08.796Z,3.05
2022-07-29T08:42:12.117Z,2.80
2022-07-29T08:45:14.277Z,2.40
2022-07-29T08:48:18.227Z,3.13
2022-07-29T08:51:21.605Z,2.95
2022-07-29T08:54:24.704Z,3.47
2022-07-29T08:57:27.358Z,3.00
2022-07-29T09:00:30.474Z,3.40
2022-07-29T09:03:35.012Z,2.83
2022-07-29T09:06:40.186Z,3.25
2022-07-29T09:09:43.190Z,3.05
2022-07-29T09:12:45.357Z,3.55
2022-07-29T09:15:47.376Z,3.28
2022-07-29T09:18:49.287Z,3.00
2022-07-29T09:21:51.413Z,3.42
2022-07-29T09:24:53.292Z,2.95
2022-07-29T09:27:55.180Z,3.22
2022-07-29T09:30:59.035Z,3.53
2022-07-29T09:34:01.113Z,3.88
2022-07-29T09:37:03.496Z,3.42
2022-07-29T09:40:20.064Z,3.67
2022-07-29T09:43:22.038Z,3.20
2022-07-29T09:46:25.398Z,3.58
2022-07-29T09:49:27.503Z,3.35
2022-07-29T09:52:30.922Z,3.47
2022-07-29T09:55:33.119Z,3.10
2022-07-29T09:58:36.712Z,2.53
2022-07-29T10:01:39.194Z,3.03
2022-07-29T10:04:42.623Z,3.60
2022-07-29T10:07:57.261Z,2.95
2022-07-29T10:11:19.868Z,2.53
2022-07-29T10:14:21.870Z,2.90
2022-07-29T10:17:24.064Z,3.78
2022-07-29T10:20:27.397Z,3.63
2022-07-29T10:23:46.769Z,2.92
2022-07-29T10:26:49.976Z,3.30
2022-07-29T10:29:52.442Z,3.38
2022-07-29T10:33:32.858Z,3.33
2022-07-29T10:37:20.940Z,3.40
2022-07-29T10:40:41.207Z,3.40
2022-07-29T10:43:46.963Z,3.78
2022-07-29T10:46:53.898Z,3.47
2022-07-29T10:50:01.139Z,4.25
2022-07-29T10:53:04.831Z,3.55
2022-07-29T10:56:25.530Z,3.60
2022-07-29T10:59:32.406Z,3.92
2022-07-29T11:02:43.973Z,3.38
2022-07-29T11:05:59.485Z,3.42
2022-07-29T11:09:37.712Z,3.83
2022-07-29T11:12:43.559Z,3.80
2022-07-29T11:15:58.794Z,3.95
2022-07-29T11:19:13.755Z,3.80
2022-07-29T11:22:36.869Z,3.58
2022-07-29T11:26:08.060Z,3.80
2022-07-29T11:29:20.916Z,3.35
2022-07-29T11:32:29.511Z,3.38
2022-07-29T11:35:38.356Z,3.53
2022-07-29T11:38:42.795Z,4.13
2022-07-29T11:41:45.481Z,3.10
2022-07-29T11:45:08.978Z,3.88
2022-07-29T11:48:28.432Z,3.88
2022-07-29T11:51:33.296Z,3.38
2022-07-29T11:54:38.870Z,4.05
2022-07-29T11:58:03.970Z,3.50
2022-07-29T12:01:06.465Z,3.60
2022-07-29T12:04:08.895Z,3.60
2022-07-29T12:07:11.094Z,4.00
2022-07-29T12:10:20.189Z,3.75
2022-07-29T12:13:40.134Z,3.80
2022-07-29T12:16:42.091Z,10.73
2022-07-29T12:19:44.401Z,3.75
2022-07-29T12:22:46.653Z,3.75
2022-07-29T12:25:49.910Z,4.28
2022-07-29T12:28:52.007Z,2.63
2022-07-29T12:31:58.109Z,19.60
2022-07-29T12:35:01.290Z,3.78
2022-07-29T12:38:04.031Z,4.30
2022-07-29T12:41:06.013Z,6.45
2022-07-29T12:47:09.974Z,3.92
2022-07-29T12:50:14.675Z,3.85
2022-07-29T12:53:17.665Z,4.03
2022-07-29T12:56:41.809Z,3.92
2022-07-29T12:59:42.613Z,3.70
2022-07-29T13:02:45.199Z,3.97
2022-07-29T13:05:49.429Z,3.90
2022-07-29T13:09:12.707Z,4.22
2022-07-29T13:12:15.223Z,3.80
2022-07-29T13:15:17.588Z,3.83
2022-07-29T13:18:33.957Z,3.60
2022-07-29T13:21:36.627Z,4.10
2022-07-29T13:24:50.428Z,3.80
2022-07-29T13:27:52.359Z,3.28
2022-07-29T13:30:55.316Z,3.72
2022-07-29T13:36:59.027Z,3.97
2022-07-29T13:43:02.867Z,4.03
2022-07-29T13:46:05.995Z,3.67
2022-07-29T13:49:08.016Z,3.38
2022-07-29T13:52:10.344Z,4.28
2022-07-29T13:55:12.643Z,4.30
2022-07-29T13:58:14.541Z,4.03
2022-07-29T14:04:18.520Z,4.18
2022-07-29T14:07:20.578Z,3.75
2022-07-29T14:10:22.503Z,4.40
2022-07-29T14:16:28.418Z,4.70
2022-07-29T14:19:30.345Z,3.95
2022-07-29T14:25:34.154Z,3.92
2022-07-29T14:31:43.744Z,3.88
2022-07-29T14:34:45.694Z,4.38
2022-07-29T14:37:48.277Z,3.92
2022-07-29T14:40:50.932Z,3.80
2022-07-29T14:43:52.989Z,4.10
2022-07-29T14:46:54.960Z,4.63
2022-07-29T14:52:58.933Z,4.82
2022-07-29T14:56:15.338Z,3.78
2022-07-29T14:59:22.716Z,4.90
2022-07-29T15:05:46.475Z,4.18
2022-07-29T15:08:49.977Z,4.40
2022-07-29T15:11:51.893Z,10.32
2022-07-29T15:14:53.816Z,4.10
2022-07-29T15:17:55.737Z,4.72
2022-07-29T15:20:57.640Z,4.25
2022-07-29T15:23:59.650Z,3.53
2022-07-29T15:27:01.578Z,3.75
2022-07-29T15:30:04.195Z,4.60
2022-07-29T15:33:06.156Z,4.18
2022-07-29T15:36:08.120Z,4.53
2022-07-29T15:39:10.099Z,4.20
2022-07-29T15:42:12.025Z,3.72
2022-07-29T15:45:13.964Z,3.90
2022-07-29T15:48:15.889Z,3.70
2022-07-29T15:51:20.306Z,3.60
2022-07-29T15:54:22.278Z,4.63
2022-07-29T15:57:24.995Z,3.83
2022-07-29T16:00:26.914Z,4.40
2022-07-29T16:03:29.979Z,4.60
2022-07-29T16:06:31.904Z,3.40
2022-07-29T16:12:35.710Z,4.57
2022-07-29T16:15:37.700Z,4.18
2022-07-29T16:21:41.507Z,3.35
2022-07-29T16:27:45.375Z,4.07
2022-07-29T16:33:55.702Z,4.03
2022-07-29T16:36:57.916Z,4.45
2022-07-29T16:43:01.919Z,3.97
2022-07-29T16:49:06.751Z,4.53
2022-07-29T16:55:10.500Z,4.35
2022-07-29T17:01:14.464Z,4.30
2022-07-29T17:07:18.172Z,3.92
2022-07-29T17:13:21.963Z,4.55
2022-07-29T17:16:27.650Z,4.38
2022-07-29T17:19:35.954Z,4.53
2022-07-29T17:22:38.335Z,4.53
2022-07-29T17:25:40.307Z,4.30
2022-07-29T17:31:44.225Z,4.90
2022-07-29T17:37:48.270Z,4.65
2022-07-29T17:40:50.148Z,5.30
2022-07-29T17:43:52.284Z,5.32
2022-07-29T17:49:56.535Z,4.80
2022-07-29T17:52:58.446Z,4.95
2022-07-29T17:56:00.368Z,4.68
2022-07-29T17:59:03.308Z,4.32
2022-07-29T18:02:05.307Z,4.90
2022-07-29T18:05:07.498Z,4.60
2022-07-29T18:11:11.479Z,5.80
2022-07-29T18:14:16.819Z,4.68
2022-07-29T18:17:18.741Z,5.78
2022-07-29T18:20:20.700Z,6.10
2022-07-29T18:23:22.612Z,5.70
2022-07-29T18:26:24.591Z,6.15
2022-07-29T18:29:32.515Z,5.30
2022-07-29T18:32:34.479Z,6.05
2022-07-29T18:35:36.374Z,7.18
2022-07-29T18:38:39.205Z,6.32
2022-07-29T18:41:49.845Z,5.93
2022-07-29T18:44:52.589Z,5.80
2022-07-29T18:47:56.361Z,6.03
2022-07-29T18:50:58.273Z,6.45
2022-07-29T18:54:00.207Z,6.18
2022-07-29T18:57:02.107Z,5.93
2022-07-29T19:00:25.109Z,6.40
2022-07-29T19:03:27.114Z,6.95
2022-07-29T19:06:29.080Z,6.10
2022-07-29T19:09:31.096Z,6.32
2022-07-29T19:12:33.034Z,6.20
2022-07-29T19:15:35.061Z,6.00
2022-07-29T19:21:39.185Z,5.80
2022-07-29T19:24:41.398Z,5.70
2022-07-29T19:27:43.312Z,6.03
2022-07-29T19:30:45.328Z,5.80
2022-07-29T19:33:47.334Z,5.57
2022-07-29T19:36:49.231Z,5.68
2022-07-29T19:39:51.139Z,5.70
2022-07-29T19:42:54.242Z,5.47
2022-07-29T19:45:56.205Z,5.97
2022-07-29T19:48:58.190Z,5.28
2022-07-29T19:52:00.173Z,7.28
2022-07-29T19:55:07.392Z,5.82
2022-07-29T19:58:09.811Z,5.57
2022-07-29T20:01:11.745Z,6.63
2022-07-29T20:04:13.634Z,5.90
2022-07-29T20:07:15.994Z,6.78
2022-07-29T20:10:17.963Z,6.18
2022-07-29T20:13:19.886Z,5.78
2022-07-29T20:16:21.846Z,5.53
2022-07-29T20:19:23.880Z,5.18
2022-07-29T20:22:26.004Z,6.18
2022-07-29T20:25:28.142Z,6.55
2022-07-29T20:28:30.059Z,6.50
2022-07-29T20:31:32.520Z,6.10
2022-07-29T20:37:52.475Z,7.03
2022-07-29T20:40:58.239Z,6.13
2022-07-29T20:44:03.630Z,6.00
2022-07-29T20:47:05.626Z,7.07
2022-07-29T20:50:07.948Z,7.00
2022-07-29T20:53:09.865Z,6.20
2022-07-29T20:56:11.752Z,6.63
2022-07-29T20:59:13.715Z,6.22
2022-07-29T21:02:15.718Z,6.90
2022-07-29T21:05:17.704Z,5.70
2022-07-29T21:08:19.614Z,6.72
2022-07-29T21:11:43.364Z,6.45
2022-07-29T21:14:43.585Z,6.18
2022-07-29T21:17:45.561Z,5.25
2022-07-29T21:20:47.504Z,6.47
2022-07-29T21:23:49.432Z,6.60
2022-07-29T21:27:18.385Z,6.75
2022-07-29T21:30:13.540Z,6.30
2022-07-29T21:33:15.473Z,6.28
2022-07-29T21:39:39.456Z,6.57
2022-07-29T21:42:41.587Z,7.30
2022-07-29T21:45:47.375Z,6.20
2022-07-29T21:48:49.353Z,6.25
2022-07-29T21:51:51.311Z,7.20
2022-07-29T21:54:54.517Z,6.90
2022-07-29T21:57:56.913Z,7.18
2022-07-29T22:04:00.773Z,6.95
2022-07-29T22:07:03.219Z,7.00
2022-07-29T22:10:06.466Z,6.60
2022-07-29T22:13:08.394Z,7.50
2022-07-29T22:16:10.324Z,6.85
2022-07-29T22:19:13.200Z,7.57
2022-07-29T22:22:15.108Z,6.95
2022-07-29T22:25:17.059Z,7.40
2022-07-29T22:28:18.991Z,7.20
2022-07-29T22:31:20.965Z,7.20
2022-07-29T22:34:22.930Z,6.82
2022-07-29T22:37:24.819Z,6.90
2022-07-29T22:40:30.701Z,7.10
2022-07-29T22:43:34.642Z,7.35
2022-07-29T22:46:36.678Z,7.72
2022-07-29T22:49:38.564Z,6.90
2022-07-29T22:52:40.505Z,7.65
2022-07-29T22:55:42.845Z,7.57
2022-07-29T22:58:45.321Z,7.40
2022-07-29T23:01:47.273Z,7.65
2022-07-29T23:04:49.210Z,7.75
2022-07-29T23:07:51.070Z,7.30
2022-07-29T23:10:53.002Z,7.82
2022-07-29T23:13:54.917Z,7.22
2022-07-29T23:16:56.910Z,7.80
2022-07-29T23:19:58.874Z,7.70
2022-07-29T23:23:03.304Z,7.70
2022-07-29T23:26:05.169Z,7.78
2022-07-29T23:29:07.078Z,8.23
2022-07-29T23:32:09.145Z,7.88
2022-07-29T23:35:11.073Z,7.55
2022-07-29T23:38:13.178Z,7.63
2022-07-29T23:41:15.407Z,7.28
2022-07-29T23:44:17.414Z,6.93
2022-07-29T23:47:20.461Z,7.75
2022-07-29T23:50:22.449Z,7.65
2022-07-29T23:53:24.357Z,6.95
2022-07-29T23:56:26.300Z,7.45
2022-07-29T23:59:28.189Z,7.95
